sensor_id;sensor_type;location;lat;lon;timestamp;P1;durP1;ratioP1;P2;durP2;ratioP2
5959;SDS011;3006;50.956;7.002;2024-01-15T00:02:35;28.17;;;15.73;;
5959;SDS011;3006;50.956;7.002;2024-01-15T00:05:04;25.43;;;13.90;;
5959;SDS011;3006;50.956;7.002;2024-01-15T00:07:32;33.60;;;15.80;;
5959;SDS011;3006;50.956;7.002;2024-01-15T00:10:04;24.67;;;15.67;;
5959;SDS011;3006;50.956;7.002;2024-01-15T00:12:33;24.87;;;14.57;;
5959;SDS011;3006;50.956;7.002;2024-01-15T00:15:06;24.73;;;14.80;;
5959;SDS011;3006;50.956;7.002;2024-01-15T00:17:35;29.27;;;16.37;;
5959;SDS011;3006;50.956;7.002;2024-01-15T00:20:03;23.00;;;14.27;;
5959;SDS011;3006;50.956;7.002;2024-01-15T00:22:32;28.83;;;15.23;;
5959;SDS011;3006;50.956;7.002;2024-01-15T00:25:03;28.73;;;15.57;;
5959;SDS011;3006;50.956;7.002;2024-01-15T00:27:32;29.57;;;15.70;;
5959;SDS011;3006;50.956;7.002;2024-01-15T00:30:00;30.53;;;15.70;;
5959;SDS011;3006;50.956;7.002;2024-01-15T00:32:29;27.57;;;16.20;;
5959;SDS011;3006;50.956;7.002;2024-01-15T00:34:57;25.13;;;14.67;;
5959;SDS011;3006;50.956;7.002;2024-01-15T00:37:25;28.70;;;16.77;;
5959;SDS011;3006;50.956;7.002;2024-01-15T00:39:53;29.70;;;15.67;;
5959;SDS011;3006;50.956;7.002;2024-01-15T00:42:23;27.43;;;14.10;;
5959;SDS011;3006;50.956;7.002;2024-01-15T00:44:51;32.50;;;18.50;;
5959;SDS011;3006;50.956;7.002;2024-01-15T00:47:22;27.50;;;15.87;;
5959;SDS011;3006;50.956;7.002;2024-01-15T00:49:50;27.13;;;15.20;;
5959;SDS011;3006;50.956;7.002;2024-01-15T00:52:19;27.70;;;16.20;;
5959;SDS011;3006;50.956;7.002;2024-01-15T00:54:47;27.20;;;16.37;;
5959;SDS011;3006;50.956;7.002;2024-01-15T00:57:15;28.53;;;15.40;;
5959;SDS011;3006;50.956;7.002;2024-01-15T00:59:46;30.27;;;15.80;;
5959;SDS011;3006;50.956;7.002;2024-01-15T01:02:15;30.70;;;15.73;;
5959;SDS011;3006;50.956;7.002;2024-01-15T01:04:43;30.17;;;14.70;;
5959;SDS011;3006;50.956;7.002;2024-01-15T01:07:12;30.30;;;15.10;;
5959;SDS011;3006;50.956;7.002;2024-01-15T01:09:40;24.10;;;14.87;;
5959;SDS011;3006;50.956;7.002;2024-01-15T01:12:08;25.87;;;14.73;;
5959;SDS011;3006;50.956;7.002;2024-01-15T01:14:36;31.37;;;15.17;;
5959;SDS011;3006;50.956;7.002;2024-01-15T01:17:06;29.10;;;15.53;;
5959;SDS011;3006;50.956;7.002;2024-01-15T01:19:34;33.00;;;16.50;;
5959;SDS011;3006;50.956;7.002;2024-01-15T01:22:02;26.80;;;15.10;;
5959;SDS011;3006;50.956;7.002;2024-01-15T01:24:31;26.50;;;14.83;;
5959;SDS011;3006;50.956;7.002;2024-01-15T01:26:59;28.80;;;16.20;;
5959;SDS011;3006;50.956;7.002;2024-01-15T01:29:27;30.00;;;16.50;;
5959;SDS011;3006;50.956;7.002;2024-01-15T01:31:56;22.23;;;13.87;;
5959;SDS011;3006;50.956;7.002;2024-01-15T01:34:26;27.20;;;14.63;;
5959;SDS011;3006;50.956;7.002;2024-01-15T01:37:13;24.83;;;14.10;;
5959;SDS011;3006;50.956;7.002;2024-01-15T01:39:45;26.70;;;14.77;;
5959;SDS011;3006;50.956;7.002;2024-01-15T01:42:19;23.83;;;14.13;;
5959;SDS011;3006;50.956;7.002;2024-01-15T01:44:59;23.63;;;14.07;;
5959;SDS011;3006;50.956;7.002;2024-01-15T01:47:33;25.80;;;14.97;;
5959;SDS011;3006;50.956;7.002;2024-01-15T01:50:03;28.53;;;14.50;;
5959;SDS011;3006;50.956;7.002;2024-01-15T01:52:32;24.33;;;14.27;;
5959;SDS011;3006;50.956;7.002;2024-01-15T01:55:06;24.40;;;13.90;;
5959;SDS011;3006;50.956;7.002;2024-01-15T01:57:36;26.30;;;13.17;;
5959;SDS011;3006;50.956;7.002;2024-01-15T02:00:05;24.40;;;14.33;;
5959;SDS011;3006;50.956;7.002;2024-01-15T02:02:37;26.80;;;14.50;;
5959;SDS011;3006;50.956;7.002;2024-01-15T02:05:07;23.67;;;12.63;;
5959;SDS011;3006;50.956;7.002;2024-01-15T02:07:36;26.57;;;13.50;;
5959;SDS011;3006;50.956;7.002;2024-01-15T02:10:05;27.80;;;14.73;;
5959;SDS011;3006;50.956;7.002;2024-01-15T02:12:35;27.33;;;13.63;;
5959;SDS011;3006;50.956;7.002;2024-01-15T02:15:04;27.23;;;14.70;;
5959;SDS011;3006;50.956;7.002;2024-01-15T02:17:33;26.30;;;14.43;;
5959;SDS011;3006;50.956;7.002;2024-01-15T02:20:08;26.80;;;13.80;;
5959;SDS011;3006;50.956;7.002;2024-01-15T02:22:36;25.53;;;13.23;;
5959;SDS011;3006;50.956;7.002;2024-01-15T02:25:06;23.63;;;13.67;;
5959;SDS011;3006;50.956;7.002;2024-01-15T02:27:35;26.00;;;15.30;;
5959;SDS011;3006;50.956;7.002;2024-01-15T02:30:04;28.00;;;15.33;;
5959;SDS011;3006;50.956;7.002;2024-01-15T02:32:34;29.27;;;14.93;;
5959;SDS011;3006;50.956;7.002;2024-01-15T02:35:03;27.23;;;15.43;;
5959;SDS011;3006;50.956;7.002;2024-01-15T02:37:31;25.00;;;14.97;;
5959;SDS011;3006;50.956;7.002;2024-01-15T02:40:08;32.77;;;14.77;;
5959;SDS011;3006;50.956;7.002;2024-01-15T02:42:36;25.97;;;14.73;;
5959;SDS011;3006;50.956;7.002;2024-01-15T02:45:05;26.37;;;14.30;;
5959;SDS011;3006;50.956;7.002;2024-01-15T02:47:33;26.43;;;14.70;;
5959;SDS011;3006;50.956;7.002;2024-01-15T02:50:04;27.47;;;14.63;;
5959;SDS011;3006;50.956;7.002;2024-01-15T02:52:33;25.30;;;14.13;;
5959;SDS011;3006;50.956;7.002;2024-01-15T02:55:02;25.17;;;14.97;;
5959;SDS011;3006;50.956;7.002;2024-01-15T02:57:32;27.50;;;14.87;;
5959;SDS011;3006;50.956;7.002;2024-01-15T03:00:00;26.63;;;14.23;;
5959;SDS011;3006;50.956;7.002;2024-01-15T03:02:28;29.87;;;14.90;;
5959;SDS011;3006;50.956;7.002;2024-01-15T03:04:57;26.77;;;13.40;;
5959;SDS011;3006;50.956;7.002;2024-01-15T03:10:04;24.27;;;14.30;;
5959;SDS011;3006;50.956;7.002;2024-01-15T03:12:34;23.83;;;13.73;;
5959;SDS011;3006;50.956;7.002;2024-01-15T03:15:03;26.03;;;14.70;;
5959;SDS011;3006;50.956;7.002;2024-01-15T03:17:32;25.90;;;12.93;;
5959;SDS011;3006;50.956;7.002;2024-01-15T03:20:01;24.17;;;13.07;;
5959;SDS011;3006;50.956;7.002;2024-01-15T03:22:30;26.50;;;14.80;;
5959;SDS011;3006;50.956;7.002;2024-01-15T03:24:58;22.70;;;12.70;;
5959;SDS011;3006;50.956;7.002;2024-01-15T03:27:26;23.10;;;12.63;;
5959;SDS011;3006;50.956;7.002;2024-01-15T03:29:56;26.47;;;14.30;;
5959;SDS011;3006;50.956;7.002;2024-01-15T03:32:24;22.60;;;13.50;;
5959;SDS011;3006;50.956;7.002;2024-01-15T03:34:52;24.33;;;13.43;;
5959;SDS011;3006;50.956;7.002;2024-01-15T03:37:20;19.80;;;12.17;;
5959;SDS011;3006;50.956;7.002;2024-01-15T03:39:48;22.13;;;12.60;;
5959;SDS011;3006;50.956;7.002;2024-01-15T03:42:16;21.97;;;13.70;;
5959;SDS011;3006;50.956;7.002;2024-01-15T03:44:45;24.80;;;13.60;;
5959;SDS011;3006;50.956;7.002;2024-01-15T03:47:14;20.43;;;12.53;;
5959;SDS011;3006;50.956;7.002;2024-01-15T03:49:42;25.40;;;14.13;;
5959;SDS011;3006;50.956;7.002;2024-01-15T03:52:10;26.73;;;13.83;;
5959;SDS011;3006;50.956;7.002;2024-01-15T03:54:38;22.93;;;13.80;;
5959;SDS011;3006;50.956;7.002;2024-01-15T03:57:07;21.77;;;13.70;;
5959;SDS011;3006;50.956;7.002;2024-01-15T03:59:35;22.63;;;14.00;;
5959;SDS011;3006;50.956;7.002;2024-01-15T04:02:04;25.80;;;13.67;;
5959;SDS011;3006;50.956;7.002;2024-01-15T04:04:33;20.60;;;12.73;;
5959;SDS011;3006;50.956;7.002;2024-01-15T04:07:02;20.93;;;13.40;;
5959;SDS011;3006;50.956;7.002;2024-01-15T04:09:30;26.33;;;15.50;;
5959;SDS011;3006;50.956;7.002;2024-01-15T04:11:58;27.47;;;14.57;;
5959;SDS011;3006;50.956;7.002;2024-01-15T04:14:27;27.53;;;14.93;;
5959;SDS011;3006;50.956;7.002;2024-01-15T04:16:55;29.43;;;15.07;;
5959;SDS011;3006;50.956;7.002;2024-01-15T04:19:23;24.23;;;14.33;;
5959;SDS011;3006;50.956;7.002;2024-01-15T04:21:52;26.43;;;14.40;;
5959;SDS011;3006;50.956;7.002;2024-01-15T04:24:20;22.37;;;14.07;;
5959;SDS011;3006;50.956;7.002;2024-01-15T04:26:49;28.80;;;15.77;;
5959;SDS011;3006;50.956;7.002;2024-01-15T04:29:17;24.13;;;15.50;;
5959;SDS011;3006;50.956;7.002;2024-01-15T04:31:45;24.53;;;13.40;;
5959;SDS011;3006;50.956;7.002;2024-01-15T04:34:13;24.90;;;13.10;;
5959;SDS011;3006;50.956;7.002;2024-01-15T04:36:41;21.40;;;13.80;;
5959;SDS011;3006;50.956;7.002;2024-01-15T04:39:11;21.07;;;13.50;;
5959;SDS011;3006;50.956;7.002;2024-01-15T04:41:39;26.53;;;14.10;;
5959;SDS011;3006;50.956;7.002;2024-01-15T04:44:07;25.63;;;12.60;;
5959;SDS011;3006;50.956;7.002;2024-01-15T04:46:35;21.20;;;13.70;;
5959;SDS011;3006;50.956;7.002;2024-01-15T04:49:04;21.60;;;13.07;;
5959;SDS011;3006;50.956;7.002;2024-01-15T04:51:32;21.83;;;13.60;;
5959;SDS011;3006;50.956;7.002;2024-01-15T04:54:01;22.90;;;12.87;;
5959;SDS011;3006;50.956;7.002;2024-01-15T04:56:30;22.57;;;12.97;;
5959;SDS011;3006;50.956;7.002;2024-01-15T04:58:59;24.57;;;12.00;;
5959;SDS011;3006;50.956;7.002;2024-01-15T05:01:30;19.53;;;12.03;;
5959;SDS011;3006;50.956;7.002;2024-01-15T05:03:59;26.63;;;11.47;;
5959;SDS011;3006;50.956;7.002;2024-01-15T05:06:27;19.20;;;10.57;;
5959;SDS011;3006;50.956;7.002;2024-01-15T05:08:55;22.50;;;11.10;;
5959;SDS011;3006;50.956;7.002;2024-01-15T05:11:26;20.40;;;10.87;;
5959;SDS011;3006;50.956;7.002;2024-01-15T05:13:58;18.70;;;11.23;;
5959;SDS011;3006;50.956;7.002;2024-01-15T05:16:26;17.83;;;11.23;;
5959;SDS011;3006;50.956;7.002;2024-01-15T05:18:54;19.50;;;10.97;;
5959;SDS011;3006;50.956;7.002;2024-01-15T05:21:23;21.37;;;10.50;;
5959;SDS011;3006;50.956;7.002;2024-01-15T05:23:51;17.90;;;10.93;;
5959;SDS011;3006;50.956;7.002;2024-01-15T05:26:19;18.20;;;10.60;;
5959;SDS011;3006;50.956;7.002;2024-01-15T05:28:47;22.17;;;11.90;;
5959;SDS011;3006;50.956;7.002;2024-01-15T05:31:17;17.97;;;11.40;;
5959;SDS011;3006;50.956;7.002;2024-01-15T05:33:45;18.60;;;11.70;;
5959;SDS011;3006;50.956;7.002;2024-01-15T05:36:13;25.17;;;10.83;;
5959;SDS011;3006;50.956;7.002;2024-01-15T05:38:41;18.40;;;10.47;;
5959;SDS011;3006;50.956;7.002;2024-01-15T05:41:09;19.70;;;10.50;;
5959;SDS011;3006;50.956;7.002;2024-01-15T05:43:38;19.17;;;11.17;;
5959;SDS011;3006;50.956;7.002;2024-01-15T05:46:06;19.57;;;10.60;;
5959;SDS011;3006;50.956;7.002;2024-01-15T05:48:35;17.10;;;10.07;;
5959;SDS011;3006;50.956;7.002;2024-01-15T05:51:03;16.00;;;9.87;;
5959;SDS011;3006;50.956;7.002;2024-01-15T05:53:32;15.70;;;9.90;;
5959;SDS011;3006;50.956;7.002;2024-01-15T05:56:00;18.33;;;10.40;;
5959;SDS011;3006;50.956;7.002;2024-01-15T05:58:28;13.60;;;8.83;;
5959;SDS011;3006;50.956;7.002;2024-01-15T06:00:56;20.33;;;10.60;;
5959;SDS011;3006;50.956;7.002;2024-01-15T06:03:24;14.20;;;8.97;;
5959;SDS011;3006;50.956;7.002;2024-01-15T06:05:54;16.80;;;9.43;;
5959;SDS011;3006;50.956;7.002;2024-01-15T06:08:22;16.77;;;10.63;;
5959;SDS011;3006;50.956;7.002;2024-01-15T06:10:53;20.17;;;9.90;;
5959;SDS011;3006;50.956;7.002;2024-01-15T06:13:25;15.73;;;9.30;;
5959;SDS011;3006;50.956;7.002;2024-01-15T06:15:53;13.30;;;9.53;;
5959;SDS011;3006;50.956;7.002;2024-01-15T06:18:21;18.40;;;9.50;;
5959;SDS011;3006;50.956;7.002;2024-01-15T06:20:50;14.10;;;9.50;;
5959;SDS011;3006;50.956;7.002;2024-01-15T06:23:20;15.53;;;9.97;;
5959;SDS011;3006;50.956;7.002;2024-01-15T06:25:48;16.23;;;9.40;;
5959;SDS011;3006;50.956;7.002;2024-01-15T06:28:16;17.73;;;9.57;;
5959;SDS011;3006;50.956;7.002;2024-01-15T06:30:44;14.67;;;9.87;;
5959;SDS011;3006;50.956;7.002;2024-01-15T06:33:12;17.40;;;10.00;;
5959;SDS011;3006;50.956;7.002;2024-01-15T06:35:41;16.17;;;10.23;;
5959;SDS011;3006;50.956;7.002;2024-01-15T06:38:09;15.77;;;9.93;;
5959;SDS011;3006;50.956;7.002;2024-01-15T06:40:38;13.53;;;9.90;;
5959;SDS011;3006;50.956;7.002;2024-01-15T06:43:12;16.30;;;9.50;;
5959;SDS011;3006;50.956;7.002;2024-01-15T06:45:40;14.03;;;10.23;;
5959;SDS011;3006;50.956;7.002;2024-01-15T06:48:08;14.23;;;9.87;;
5959;SDS011;3006;50.956;7.002;2024-01-15T06:50:39;15.00;;;9.60;;
5959;SDS011;3006;50.956;7.002;2024-01-15T06:53:07;15.80;;;10.27;;
5959;SDS011;3006;50.956;7.002;2024-01-15T06:55:35;16.07;;;10.07;;
5959;SDS011;3006;50.956;7.002;2024-01-15T06:58:05;21.63;;;9.83;;
5959;SDS011;3006;50.956;7.002;2024-01-15T07:00:33;15.10;;;9.57;;
5959;SDS011;3006;50.956;7.002;2024-01-15T07:03:01;16.30;;;10.77;;
5959;SDS011;3006;50.956;7.002;2024-01-15T07:05:29;16.93;;;11.50;;
5959;SDS011;3006;50.956;7.002;2024-01-15T07:07:58;19.97;;;12.80;;
5959;SDS011;3006;50.956;7.002;2024-01-15T07:10:26;15.70;;;11.23;;
5959;SDS011;3006;50.956;7.002;2024-01-15T07:12:54;18.07;;;10.40;;
5959;SDS011;3006;50.956;7.002;2024-01-15T07:15:24;19.43;;;10.17;;
5959;SDS011;3006;50.956;7.002;2024-01-15T07:17:52;14.73;;;10.03;;
5959;SDS011;3006;50.956;7.002;2024-01-15T07:20:20;21.50;;;10.97;;
5959;SDS011;3006;50.956;7.002;2024-01-15T07:22:48;14.13;;;9.80;;
5959;SDS011;3006;50.956;7.002;2024-01-15T07:25:17;13.90;;;9.27;;
5959;SDS011;3006;50.956;7.002;2024-01-15T07:27:45;16.73;;;8.90;;
5959;SDS011;3006;50.956;7.002;2024-01-15T07:30:13;14.50;;;10.10;;
5959;SDS011;3006;50.956;7.002;2024-01-15T07:32:43;16.10;;;9.77;;
5959;SDS011;3006;50.956;7.002;2024-01-15T07:35:11;15.23;;;9.83;;
5959;SDS011;3006;50.956;7.002;2024-01-15T07:37:39;12.37;;;9.97;;
5959;SDS011;3006;50.956;7.002;2024-01-15T07:40:08;18.83;;;9.40;;
5959;SDS011;3006;50.956;7.002;2024-01-15T07:42:37;15.03;;;9.70;;
5959;SDS011;3006;50.956;7.002;2024-01-15T07:45:05;18.07;;;11.60;;
5959;SDS011;3006;50.956;7.002;2024-01-15T07:47:34;14.70;;;10.73;;
5959;SDS011;3006;50.956;7.002;2024-01-15T07:50:04;21.40;;;11.37;;
5959;SDS011;3006;50.956;7.002;2024-01-15T07:52:33;15.60;;;10.70;;
5959;SDS011;3006;50.956;7.002;2024-01-15T07:55:01;17.63;;;10.97;;
5959;SDS011;3006;50.956;7.002;2024-01-15T07:57:31;18.77;;;11.00;;
5959;SDS011;3006;50.956;7.002;2024-01-15T07:59:59;15.13;;;10.07;;
5959;SDS011;3006;50.956;7.002;2024-01-15T08:02:30;17.60;;;11.90;;
5959;SDS011;3006;50.956;7.002;2024-01-15T08:05:04;17.53;;;11.57;;
5959;SDS011;3006;50.956;7.002;2024-01-15T08:07:33;14.37;;;10.30;;
5959;SDS011;3006;50.956;7.002;2024-01-15T08:10:01;17.60;;;10.33;;
5959;SDS011;3006;50.956;7.002;2024-01-15T08:12:29;19.20;;;12.07;;
5959;SDS011;3006;50.956;7.002;2024-01-15T08:14:58;20.67;;;12.00;;
5959;SDS011;3006;50.956;7.002;2024-01-15T08:17:26;28.10;;;12.50;;
5959;SDS011;3006;50.956;7.002;2024-01-15T08:19:55;18.97;;;11.40;;
5959;SDS011;3006;50.956;7.002;2024-01-15T08:22:25;17.80;;;12.03;;
5959;SDS011;3006;50.956;7.002;2024-01-15T08:24:57;19.27;;;12.97;;
5959;SDS011;3006;50.956;7.002;2024-01-15T08:27:25;19.50;;;13.40;;
5959;SDS011;3006;50.956;7.002;2024-01-15T08:29:54;23.77;;;12.40;;
5959;SDS011;3006;50.956;7.002;2024-01-15T08:32:22;21.50;;;12.20;;
5959;SDS011;3006;50.956;7.002;2024-01-15T08:34:50;20.70;;;12.97;;
5959;SDS011;3006;50.956;7.002;2024-01-15T08:37:19;18.17;;;11.80;;
5959;SDS011;3006;50.956;7.002;2024-01-15T08:39:49;19.63;;;13.10;;
5959;SDS011;3006;50.956;7.002;2024-01-15T08:42:17;20.57;;;12.83;;
5959;SDS011;3006;50.956;7.002;2024-01-15T08:44:48;15.87;;;12.07;;
5959;SDS011;3006;50.956;7.002;2024-01-15T08:47:16;19.37;;;11.53;;
5959;SDS011;3006;50.956;7.002;2024-01-15T08:49:45;19.27;;;12.13;;
5959;SDS011;3006;50.956;7.002;2024-01-15T08:52:13;18.13;;;12.30;;
5959;SDS011;3006;50.956;7.002;2024-01-15T08:54:42;18.03;;;11.43;;
5959;SDS011;3006;50.956;7.002;2024-01-15T08:57:11;21.83;;;11.30;;
5959;SDS011;3006;50.956;7.002;2024-01-15T08:59:40;17.87;;;12.33;;
5959;SDS011;3006;50.956;7.002;2024-01-15T09:02:08;21.07;;;11.73;;
5959;SDS011;3006;50.956;7.002;2024-01-15T09:04:38;20.17;;;12.13;;
5959;SDS011;3006;50.956;7.002;2024-01-15T09:07:06;17.23;;;10.97;;
5959;SDS011;3006;50.956;7.002;2024-01-15T09:09:34;16.27;;;11.00;;
5959;SDS011;3006;50.956;7.002;2024-01-15T09:12:03;19.07;;;12.47;;
5959;SDS011;3006;50.956;7.002;2024-01-15T09:14:33;16.73;;;11.27;;
5959;SDS011;3006;50.956;7.002;2024-01-15T09:17:03;17.70;;;11.27;;
5959;SDS011;3006;50.956;7.002;2024-01-15T09:19:32;15.63;;;9.90;;
5959;SDS011;3006;50.956;7.002;2024-01-15T09:22:00;19.33;;;10.63;;
5959;SDS011;3006;50.956;7.002;2024-01-15T09:24:28;17.00;;;10.83;;
5959;SDS011;3006;50.956;7.002;2024-01-15T09:26:57;18.40;;;11.37;;
5959;SDS011;3006;50.956;7.002;2024-01-15T09:29:25;15.20;;;10.63;;
5959;SDS011;3006;50.956;7.002;2024-01-15T09:31:55;16.10;;;9.97;;
5959;SDS011;3006;50.956;7.002;2024-01-15T09:34:23;15.53;;;9.00;;
5959;SDS011;3006;50.956;7.002;2024-01-15T09:36:52;14.13;;;8.40;;
5959;SDS011;3006;50.956;7.002;2024-01-15T09:39:20;12.63;;;8.90;;
5959;SDS011;3006;50.956;7.002;2024-01-15T09:41:49;11.73;;;8.73;;
5959;SDS011;3006;50.956;7.002;2024-01-15T09:44:18;12.90;;;9.00;;
5959;SDS011;3006;50.956;7.002;2024-01-15T09:46:47;11.97;;;7.93;;
5959;SDS011;3006;50.956;7.002;2024-01-15T09:49:18;13.43;;;8.43;;
5959;SDS011;3006;50.956;7.002;2024-01-15T09:51:46;11.17;;;7.83;;
5959;SDS011;3006;50.956;7.002;2024-01-15T09:54:28;9.80;;;6.87;;
5959;SDS011;3006;50.956;7.002;2024-01-15T09:56:56;9.33;;;7.33;;
5959;SDS011;3006;50.956;7.002;2024-01-15T09:59:25;7.00;;;5.97;;
5959;SDS011;3006;50.956;7.002;2024-01-15T10:01:54;8.43;;;6.53;;
5959;SDS011;3006;50.956;7.002;2024-01-15T10:04:25;7.97;;;6.10;;
5959;SDS011;3006;50.956;7.002;2024-01-15T10:06:54;7.33;;;5.60;;
5959;SDS011;3006;50.956;7.002;2024-01-15T10:09:25;5.77;;;5.17;;
5959;SDS011;3006;50.956;7.002;2024-01-15T10:11:53;8.63;;;5.80;;
5959;SDS011;3006;50.956;7.002;2024-01-15T10:14:21;7.20;;;5.60;;
5959;SDS011;3006;50.956;7.002;2024-01-15T10:16:49;10.57;;;5.50;;
5959;SDS011;3006;50.956;7.002;2024-01-15T10:19:18;7.73;;;5.23;;
5959;SDS011;3006;50.956;7.002;2024-01-15T10:21:47;9.73;;;6.30;;
5959;SDS011;3006;50.956;7.002;2024-01-15T10:24:16;10.40;;;6.07;;
5959;SDS011;3006;50.956;7.002;2024-01-15T10:26:45;6.53;;;5.10;;
5959;SDS011;3006;50.956;7.002;2024-01-15T10:29:14;7.77;;;5.37;;
5959;SDS011;3006;50.956;7.002;2024-01-15T10:31:42;6.30;;;4.90;;
5959;SDS011;3006;50.956;7.002;2024-01-15T10:34:12;8.07;;;4.50;;
5959;SDS011;3006;50.956;7.002;2024-01-15T10:36:45;6.20;;;4.50;;
5959;SDS011;3006;50.956;7.002;2024-01-15T10:39:16;9.20;;;5.27;;
5959;SDS011;3006;50.956;7.002;2024-01-15T10:41:44;5.23;;;4.17;;
5959;SDS011;3006;50.956;7.002;2024-01-15T10:44:12;5.03;;;4.10;;
5959;SDS011;3006;50.956;7.002;2024-01-15T10:46:40;4.70;;;4.07;;
5959;SDS011;3006;50.956;7.002;2024-01-15T10:49:09;4.77;;;3.90;;
5959;SDS011;3006;50.956;7.002;2024-01-15T10:51:38;3.90;;;3.50;;
5959;SDS011;3006;50.956;7.002;2024-01-15T10:54:09;5.90;;;4.17;;
5959;SDS011;3006;50.956;7.002;2024-01-15T10:56:39;5.00;;;3.53;;
5959;SDS011;3006;50.956;7.002;2024-01-15T10:59:08;7.97;;;4.00;;
5959;SDS011;3006;50.956;7.002;2024-01-15T11:01:39;3.97;;;3.40;;
5959;SDS011;3006;50.956;7.002;2024-01-15T11:04:09;4.40;;;4.00;;
5959;SDS011;3006;50.956;7.002;2024-01-15T11:06:41;6.87;;;3.80;;
5959;SDS011;3006;50.956;7.002;2024-01-15T11:09:11;4.43;;;3.83;;
5959;SDS011;3006;50.956;7.002;2024-01-15T11:11:43;5.03;;;3.33;;
5959;SDS011;3006;50.956;7.002;2024-01-15T11:17:01;3.13;;;2.93;;
5959;SDS011;3006;50.956;7.002;2024-01-15T11:19:35;3.50;;;3.17;;
5959;SDS011;3006;50.956;7.002;2024-01-15T11:22:07;3.27;;;2.97;;
5959;SDS011;3006;50.956;7.002;2024-01-15T11:24:36;2.53;;;2.30;;
5959;SDS011;3006;50.956;7.002;2024-01-15T11:27:07;3.70;;;2.67;;
5959;SDS011;3006;50.956;7.002;2024-01-15T11:29:36;3.20;;;2.50;;
5959;SDS011;3006;50.956;7.002;2024-01-15T11:32:06;3.40;;;2.47;;
5959;SDS011;3006;50.956;7.002;2024-01-15T11:37:29;2.90;;;2.70;;
5959;SDS011;3006;50.956;7.002;2024-01-15T11:40:36;2.33;;;2.10;;
5959;SDS011;3006;50.956;7.002;2024-01-15T11:43:06;2.30;;;2.10;;
5959;SDS011;3006;50.956;7.002;2024-01-15T11:45:36;2.60;;;2.40;;
5959;SDS011;3006;50.956;7.002;2024-01-15T11:48:09;4.53;;;3.03;;
5959;SDS011;3006;50.956;7.002;2024-01-15T11:50:39;8.17;;;2.90;;
5959;SDS011;3006;50.956;7.002;2024-01-15T11:53:13;5.60;;;3.20;;
5959;SDS011;3006;50.956;7.002;2024-01-15T11:55:45;4.47;;;3.90;;
5959;SDS011;3006;50.956;7.002;2024-01-15T11:58:16;4.97;;;4.00;;
5959;SDS011;3006;50.956;7.002;2024-01-15T12:00:45;3.90;;;3.60;;
5959;SDS011;3006;50.956;7.002;2024-01-15T12:03:16;3.43;;;3.23;;
5959;SDS011;3006;50.956;7.002;2024-01-15T12:05:44;4.00;;;3.60;;
5959;SDS011;3006;50.956;7.002;2024-01-15T12:08:13;4.77;;;4.37;;
5959;SDS011;3006;50.956;7.002;2024-01-15T12:10:41;4.30;;;3.90;;
5959;SDS011;3006;50.956;7.002;2024-01-15T12:13:10;6.20;;;4.77;;
5959;SDS011;3006;50.956;7.002;2024-01-15T12:15:41;4.73;;;4.33;;
5959;SDS011;3006;50.956;7.002;2024-01-15T12:18:11;6.37;;;4.47;;
5959;SDS011;3006;50.956;7.002;2024-01-15T12:20:42;7.10;;;4.83;;
5959;SDS011;3006;50.956;7.002;2024-01-15T12:23:14;8.40;;;5.40;;
5959;SDS011;3006;50.956;7.002;2024-01-15T12:25:43;7.80;;;5.40;;
5959;SDS011;3006;50.956;7.002;2024-01-15T12:28:11;8.43;;;4.93;;
5959;SDS011;3006;50.956;7.002;2024-01-15T12:30:40;16.60;;;6.43;;
5959;SDS011;3006;50.956;7.002;2024-01-15T12:33:11;7.50;;;5.00;;
5959;SDS011;3006;50.956;7.002;2024-01-15T12:35:39;8.63;;;5.30;;
5959;SDS011;3006;50.956;7.002;2024-01-15T12:38:07;10.80;;;5.60;;
5959;SDS011;3006;50.956;7.002;2024-01-15T12:40:35;18.40;;;5.63;;
5959;SDS011;3006;50.956;7.002;2024-01-15T12:43:05;12.03;;;4.80;;
5959;SDS011;3006;50.956;7.002;2024-01-15T12:45:34;6.00;;;4.87;;
5959;SDS011;3006;50.956;7.002;2024-01-15T12:48:06;13.67;;;4.80;;
5959;SDS011;3006;50.956;7.002;2024-01-15T12:50:34;12.70;;;4.90;;
5959;SDS011;3006;50.956;7.002;2024-01-15T12:53:03;7.10;;;4.50;;
5959;SDS011;3006;50.956;7.002;2024-01-15T12:55:31;8.40;;;4.67;;
5959;SDS011;3006;50.956;7.002;2024-01-15T12:58:00;9.60;;;5.47;;
5959;SDS011;3006;50.956;7.002;2024-01-15T13:00:29;7.10;;;3.87;;
5959;SDS011;3006;50.956;7.002;2024-01-15T13:02:57;8.40;;;3.90;;
5959;SDS011;3006;50.956;7.002;2024-01-15T13:05:28;10.03;;;3.90;;
5959;SDS011;3006;50.956;7.002;2024-01-15T13:07:59;10.17;;;4.20;;
5959;SDS011;3006;50.956;7.002;2024-01-15T13:10:27;6.40;;;4.30;;
5959;SDS011;3006;50.956;7.002;2024-01-15T13:12:56;5.90;;;3.70;;
5959;SDS011;3006;50.956;7.002;2024-01-15T13:15:25;12.43;;;5.00;;
5959;SDS011;3006;50.956;7.002;2024-01-15T13:17:53;6.97;;;4.20;;
5959;SDS011;3006;50.956;7.002;2024-01-15T13:20:22;5.10;;;3.60;;
5959;SDS011;3006;50.956;7.002;2024-01-15T13:22:52;7.80;;;3.80;;
5959;SDS011;3006;50.956;7.002;2024-01-15T13:25:21;8.77;;;3.73;;
5959;SDS011;3006;50.956;7.002;2024-01-15T13:27:49;7.80;;;4.37;;
5959;SDS011;3006;50.956;7.002;2024-01-15T13:30:18;9.13;;;3.47;;
5959;SDS011;3006;50.956;7.002;2024-01-15T13:32:47;4.20;;;3.00;;
5959;SDS011;3006;50.956;7.002;2024-01-15T13:35:15;7.10;;;3.10;;
5959;SDS011;3006;50.956;7.002;2024-01-15T13:37:43;8.17;;;3.13;;
5959;SDS011;3006;50.956;7.002;2024-01-15T13:40:13;8.00;;;3.53;;
5959;SDS011;3006;50.956;7.002;2024-01-15T13:42:44;6.13;;;3.00;;
5959;SDS011;3006;50.956;7.002;2024-01-15T13:45:14;5.90;;;2.43;;
5959;SDS011;3006;50.956;7.002;2024-01-15T13:47:42;3.77;;;2.40;;
5959;SDS011;3006;50.956;7.002;2024-01-15T13:50:11;3.17;;;2.53;;
5959;SDS011;3006;50.956;7.002;2024-01-15T13:52:40;6.30;;;2.90;;
5959;SDS011;3006;50.956;7.002;2024-01-15T13:55:08;2.90;;;2.40;;
5959;SDS011;3006;50.956;7.002;2024-01-15T13:57:38;4.33;;;3.07;;
5959;SDS011;3006;50.956;7.002;2024-01-15T14:00:07;3.50;;;2.73;;
5959;SDS011;3006;50.956;7.002;2024-01-15T14:02:39;3.53;;;1.90;;
5959;SDS011;3006;50.956;7.002;2024-01-15T14:05:07;3.07;;;1.93;;
5959;SDS011;3006;50.956;7.002;2024-01-15T14:07:35;3.90;;;2.30;;
5959;SDS011;3006;50.956;7.002;2024-01-15T14:10:04;1.97;;;1.87;;
5959;SDS011;3006;50.956;7.002;2024-01-15T14:12:34;3.00;;;1.90;;
5959;SDS011;3006;50.956;7.002;2024-01-15T14:15:05;5.47;;;2.37;;
5959;SDS011;3006;50.956;7.002;2024-01-15T14:17:33;2.57;;;2.30;;
5959;SDS011;3006;50.956;7.002;2024-01-15T14:20:02;3.43;;;1.97;;
5959;SDS011;3006;50.956;7.002;2024-01-15T14:22:33;4.93;;;2.03;;
5959;SDS011;3006;50.956;7.002;2024-01-15T14:25:01;1.83;;;1.73;;
5959;SDS011;3006;50.956;7.002;2024-01-15T14:27:29;2.20;;;1.97;;
5959;SDS011;3006;50.956;7.002;2024-01-15T14:29:59;2.40;;;1.97;;
5959;SDS011;3006;50.956;7.002;2024-01-15T14:32:31;2.77;;;1.70;;
5959;SDS011;3006;50.956;7.002;2024-01-15T14:34:59;1.93;;;1.60;;
5959;SDS011;3006;50.956;7.002;2024-01-15T14:37:27;3.20;;;2.73;;
5959;SDS011;3006;50.956;7.002;2024-01-15T14:39:57;3.47;;;1.90;;
5959;SDS011;3006;50.956;7.002;2024-01-15T14:42:25;2.00;;;1.80;;
5959;SDS011;3006;50.956;7.002;2024-01-15T14:44:53;2.90;;;2.07;;
5959;SDS011;3006;50.956;7.002;2024-01-15T14:47:22;3.90;;;1.80;;
5959;SDS011;3006;50.956;7.002;2024-01-15T14:49:52;2.10;;;1.60;;
5959;SDS011;3006;50.956;7.002;2024-01-15T14:52:20;2.50;;;2.00;;
5959;SDS011;3006;50.956;7.002;2024-01-15T14:54:49;2.37;;;2.00;;
5959;SDS011;3006;50.956;7.002;2024-01-15T14:57:18;2.10;;;1.70;;
5959;SDS011;3006;50.956;7.002;2024-01-15T14:59:46;5.37;;;2.20;;
5959;SDS011;3006;50.956;7.002;2024-01-15T15:02:14;2.40;;;2.20;;
5959;SDS011;3006;50.956;7.002;2024-01-15T15:04:44;3.40;;;2.63;;
5959;SDS011;3006;50.956;7.002;2024-01-15T15:07:17;2.80;;;2.60;;
5959;SDS011;3006;50.956;7.002;2024-01-15T15:09:45;2.70;;;2.50;;
5959;SDS011;3006;50.956;7.002;2024-01-15T15:12:13;2.90;;;2.60;;
5959;SDS011;3006;50.956;7.002;2024-01-15T15:14:42;2.63;;;2.43;;
5959;SDS011;3006;50.956;7.002;2024-01-15T15:17:25;3.70;;;3.30;;
5959;SDS011;3006;50.956;7.002;2024-01-15T15:19:53;4.63;;;3.83;;